createdAt,value
2023-04-13T00:01:17.081Z,0.20
2023-04-13T00:03:46.140Z,0.20
2023-04-13T00:06:13.746Z,0.10
2023-04-13T00:08:43.064Z,0.20
2023-04-13T00:11:11.032Z,0.10
2023-04-13T00:13:43.228Z,0.17
2023-04-13T00:16:11.202Z,0.20
2023-04-13T00:18:40.286Z,0.20
2023-04-13T00:21:08.029Z,0.13
2023-04-13T00:23:38.645Z,0.27
2023-04-13T00:26:06.126Z,0.20
2023-04-13T00:28:34.006Z,0.20
2023-04-13T00:31:02.099Z,0.10
2023-04-13T00:33:29.788Z,0.10
2023-04-13T00:35:57.276Z,0.10
2023-04-13T00:38:27.364Z,0.10
2023-04-13T00:40:56.162Z,0.20
2023-04-13T00:43:23.932Z,0.17
2023-04-13T00:45:53.479Z,0.20
2023-04-13T00:48:20.914Z,0.20
2023-04-13T00:50:48.528Z,0.10
2023-04-13T00:53:16.690Z,0.10
2023-04-13T00:55:44.178Z,0.10
2023-04-13T00:58:13.586Z,0.10
2023-04-13T01:00:43.310Z,0.10
2023-04-13T01:03:11.792Z,0.10
2023-04-13T01:05:50.457Z,0.13
2023-04-13T01:08:37.082Z,0.20
2023-04-13T01:11:18.923Z,0.10
2023-04-13T01:14:10.055Z,0.20
2023-04-13T01:16:43.250Z,0.10
2023-04-13T01:19:20.830Z,0.20
2023-04-13T01:21:48.968Z,0.10
2023-04-13T01:24:24.392Z,0.10
2023-04-13T01:27:03.566Z,0.10
2023-04-13T01:29:31.220Z,0.10
2023-04-13T01:31:58.697Z,0.10
2023-04-13T01:34:26.159Z,0.10
2023-04-13T01:36:53.980Z,0.10
2023-04-13T01:39:21.921Z,0.10
2023-04-13T01:41:49.271Z,0.10
2023-04-13T01:44:17.214Z,0.10
2023-04-13T01:46:46.648Z,0.10
2023-04-13T01:49:16.291Z,0.10
2023-04-13T01:51:45.453Z,0.10
2023-04-13T01:54:14.236Z,0.10
2023-04-13T01:56:41.848Z,0.20
2023-04-13T01:59:09.657Z,0.27
2023-04-13T02:01:38.737Z,0.10
2023-04-13T02:04:07.889Z,0.20
2023-04-13T02:06:37.020Z,0.10
2023-04-13T02:09:06.977Z,0.10
2023-04-13T02:11:35.448Z,0.10
2023-04-13T02:14:04.219Z,0.10
2023-04-13T02:16:32.312Z,0.00
2023-04-13T02:19:00.346Z,0.10
2023-04-13T02:21:28.492Z,0.10
2023-04-13T02:23:55.925Z,0.10
2023-04-13T02:26:23.776Z,0.10
2023-04-13T02:28:52.498Z,0.10
2023-04-13T02:31:20.810Z,0.10
2023-04-13T02:33:48.363Z,0.10
2023-04-13T02:36:17.635Z,0.10
2023-04-13T02:38:45.265Z,0.10
2023-04-13T02:41:12.769Z,0.20
2023-04-13T02:43:40.736Z,0.10
2023-04-13T02:46:09.012Z,0.20
2023-04-13T02:48:36.767Z,0.10
2023-04-13T02:51:04.245Z,0.00
2023-04-13T02:53:31.736Z,0.17
2023-04-13T02:55:59.123Z,0.20
2023-04-13T02:58:26.875Z,0.10
2023-04-13T03:00:54.318Z,0.20
2023-04-13T03:03:21.712Z,0.20
2023-04-13T03:05:50.884Z,0.20
2023-04-13T03:08:18.956Z,0.30
2023-04-13T03:10:46.698Z,0.20
2023-04-13T03:13:14.028Z,0.13
2023-04-13T03:15:42.343Z,0.10
2023-04-13T03:18:09.803Z,0.20
2023-04-13T03:20:37.200Z,0.20
2023-04-13T03:23:04.702Z,0.10
2023-04-13T03:25:33.915Z,0.20
2023-04-13T03:28:01.642Z,0.20
2023-04-13T03:30:29.530Z,0.20
2023-04-13T03:32:56.932Z,0.30
2023-04-13T03:35:24.321Z,0.20
2023-04-13T03:37:51.614Z,0.20
2023-04-13T03:40:19.252Z,0.27
2023-04-13T03:42:46.868Z,0.10
2023-04-13T03:45:14.318Z,0.20
2023-04-13T03:47:41.810Z,0.20
2023-04-13T03:50:09.549Z,0.20
2023-04-13T03:52:36.971Z,0.30
2023-04-13T03:55:04.577Z,0.40
2023-04-13T03:57:32.131Z,0.30
2023-04-13T03:59:59.556Z,0.40
2023-04-13T04:02:27.630Z,0.30
2023-04-13T04:04:55.455Z,0.20
2023-04-13T04:07:23.759Z,0.30
2023-04-13T04:09:51.475Z,0.20
2023-04-13T04:12:18.928Z,0.30
2023-04-13T04:14:46.316Z,0.20
2023-04-13T04:17:13.782Z,0.13
2023-04-13T04:19:41.272Z,0.10
2023-04-13T04:22:08.739Z,0.30
2023-04-13T04:24:36.237Z,0.20
2023-04-13T04:27:06.051Z,0.20
2023-04-13T04:29:36.472Z,0.20
2023-04-13T04:32:05.814Z,0.30
2023-04-13T04:34:33.497Z,0.10
2023-04-13T04:37:04.091Z,0.30
2023-04-13T04:39:44.624Z,0.20
2023-04-13T04:42:12.003Z,0.20
2023-04-13T04:44:40.079Z,0.10
2023-04-13T04:47:07.537Z,0.20
2023-04-13T04:49:34.892Z,0.30
2023-04-13T04:52:02.251Z,0.20
2023-04-13T04:54:29.665Z,0.30
2023-04-13T04:56:58.312Z,0.20
2023-04-13T04:59:25.650Z,0.20
2023-04-13T05:01:52.966Z,0.40
2023-04-13T05:04:20.374Z,0.30
2023-04-13T05:06:48.446Z,0.37
2023-04-13T05:09:15.887Z,0.20
2023-04-13T05:11:43.304Z,0.20
2023-04-13T05:14:10.648Z,0.20
2023-04-13T05:16:38.058Z,0.10
2023-04-13T05:19:08.093Z,0.20
2023-04-13T05:21:35.646Z,0.20
2023-04-13T05:24:02.964Z,0.10
2023-04-13T05:26:30.968Z,0.23
2023-04-13T05:28:58.712Z,0.30
2023-04-13T05:31:27.468Z,0.20
2023-04-13T05:33:54.900Z,0.20
2023-04-13T05:36:22.607Z,0.30
2023-04-13T05:38:50.330Z,0.10
2023-04-13T05:41:17.699Z,0.30
2023-04-13T05:43:46.252Z,0.30
2023-04-13T05:46:13.668Z,0.40
2023-04-13T05:48:42.170Z,0.47
2023-04-13T05:51:09.607Z,0.30
2023-04-13T05:53:37.326Z,0.40
2023-04-13T05:56:04.806Z,0.33
2023-04-13T05:58:32.254Z,0.20
2023-04-13T06:00:59.740Z,0.50
2023-04-13T06:03:27.586Z,0.20
2023-04-13T06:05:55.292Z,0.20
2023-04-13T06:08:22.716Z,0.30
2023-04-13T06:10:50.364Z,0.30
2023-04-13T06:13:18.006Z,0.30
2023-04-13T06:15:45.448Z,0.37
2023-04-13T06:18:12.843Z,0.20
2023-04-13T06:20:40.423Z,0.30
2023-04-13T06:23:07.817Z,0.30
2023-04-13T06:25:35.708Z,0.20
2023-04-13T06:28:04.701Z,0.20
2023-04-13T06:30:32.138Z,0.33
2023-04-13T06:32:59.679Z,0.30
2023-04-13T06:35:27.188Z,0.43
2023-04-13T06:37:54.646Z,0.30
2023-04-13T06:40:23.543Z,0.40
2023-04-13T06:42:51.126Z,0.20
2023-04-13T06:45:18.495Z,0.50
2023-04-13T06:47:46.047Z,0.30
2023-04-13T06:50:17.170Z,0.30
2023-04-13T06:52:45.482Z,0.13
2023-04-13T06:55:13.094Z,0.50
2023-04-13T06:57:40.670Z,0.40
2023-04-13T07:00:21.801Z,0.50
2023-04-13T07:02:56.426Z,0.30
2023-04-13T07:05:23.982Z,0.60
2023-04-13T07:07:51.845Z,0.20
2023-04-13T07:10:19.249Z,0.30
2023-04-13T07:12:46.614Z,0.20
2023-04-13T07:15:14.047Z,0.47
2023-04-13T07:17:41.495Z,0.30
2023-04-13T07:20:09.765Z,0.30
2023-04-13T07:22:37.329Z,0.30
2023-04-13T07:25:05.834Z,0.23
2023-04-13T07:27:33.928Z,0.40
2023-04-13T07:30:04.369Z,0.50
2023-04-13T07:32:32.120Z,0.40
2023-04-13T07:35:02.290Z,0.30
2023-04-13T07:37:30.049Z,0.30
2023-04-13T07:39:57.649Z,0.30
2023-04-13T07:42:26.002Z,0.40
2023-04-13T07:44:59.492Z,0.20
2023-04-13T07:47:27.077Z,0.20
2023-04-13T07:49:54.683Z,0.30
2023-04-13T07:52:22.306Z,0.30
2023-04-13T07:54:49.891Z,0.30
2023-04-13T07:57:22.053Z,0.30
2023-04-13T07:59:49.568Z,0.40
2023-04-13T08:02:18.260Z,0.40
2023-04-13T08:04:46.153Z,0.20
2023-04-13T08:07:13.668Z,0.40
2023-04-13T08:09:42.539Z,0.30
2023-04-13T08:12:10.409Z,0.40
2023-04-13T08:14:37.884Z,0.20
2023-04-13T08:17:06.299Z,0.40
2023-04-13T08:19:34.214Z,0.20
2023-04-13T08:22:04.450Z,0.40
2023-04-13T08:24:31.891Z,0.20
2023-04-13T08:26:59.563Z,0.37
2023-04-13T08:29:27.920Z,0.20
2023-04-13T08:31:57.057Z,0.33
2023-04-13T08:34:24.528Z,0.30
2023-04-13T08:36:52.777Z,0.30
2023-04-13T08:39:21.508Z,0.40
2023-04-13T08:41:49.408Z,0.30
2023-04-13T08:44:17.761Z,0.20
2023-04-13T08:46:46.763Z,0.23
2023-04-13T08:49:14.606Z,0.20
2023-04-13T08:51:43.963Z,0.40
2023-04-13T08:54:14.365Z,0.30
2023-04-13T08:56:46.637Z,0.20
2023-04-13T08:59:16.267Z,0.20
2023-04-13T09:01:47.446Z,0.20
2023-04-13T09:04:20.634Z,0.20
2023-04-13T09:06:51.323Z,0.20
2023-04-13T09:09:21.450Z,0.20
2023-04-13T09:11:51.507Z,0.30
2023-04-13T09:14:20.648Z,0.40
2023-04-13T09:16:48.489Z,0.30
2023-04-13T09:19:16.045Z,0.20
2023-04-13T09:21:45.124Z,0.20
2023-04-13T09:24:13.081Z,0.40
2023-04-13T09:26:44.574Z,0.20
2023-04-13T09:29:14.503Z,0.20
2023-04-13T09:31:43.689Z,0.30
2023-04-13T09:34:13.179Z,0.20
2023-04-13T09:36:53.444Z,0.30
2023-04-13T09:39:26.692Z,0.20
2023-04-13T09:41:55.137Z,0.20
2023-04-13T09:44:35.021Z,0.50
2023-04-13T09:47:07.019Z,0.33
2023-04-13T09:49:38.434Z,0.37
2023-04-13T09:52:19.805Z,0.30
2023-04-13T09:55:05.134Z,0.30
2023-04-13T09:57:33.213Z,0.60
2023-04-13T10:00:01.923Z,0.30
2023-04-13T10:02:30.152Z,0.30
2023-04-13T10:04:58.512Z,0.20
2023-04-13T10:07:30.222Z,0.20
2023-04-13T10:09:57.716Z,0.30
2023-04-13T10:12:26.716Z,0.20
2023-04-13T10:14:57.332Z,0.30
2023-04-13T10:17:33.963Z,0.10
2023-04-13T10:20:10.504Z,0.30
2023-04-13T10:22:38.942Z,0.30
2023-04-13T10:25:07.416Z,0.40
2023-04-13T10:27:36.612Z,0.40
2023-04-13T10:30:14.056Z,0.30
2023-04-13T10:32:42.484Z,0.20
2023-04-13T10:35:13.624Z,0.37
2023-04-13T10:37:41.749Z,0.27
2023-04-13T10:40:10.583Z,0.20
2023-04-13T10:42:51.918Z,0.30
2023-04-13T10:45:26.553Z,0.30
2023-04-13T10:47:54.380Z,0.30
2023-04-13T10:50:23.442Z,0.40
2023-04-13T10:53:01.847Z,0.30
2023-04-13T10:55:29.489Z,0.20
2023-04-13T10:57:57.611Z,0.30
2023-04-13T11:00:38.283Z,0.20
2023-04-13T11:03:11.124Z,0.40
2023-04-13T11:05:38.766Z,0.20
2023-04-13T11:08:06.503Z,0.20
2023-04-13T11:10:33.772Z,0.27
2023-04-13T11:13:02.388Z,0.30
2023-04-13T11:15:32.561Z,0.30
2023-04-13T11:18:02.609Z,0.60
2023-04-13T11:20:31.529Z,0.30
2023-04-13T11:22:59.399Z,0.40
2023-04-13T11:25:28.129Z,0.40
2023-04-13T11:27:56.335Z,0.30
2023-04-13T11:30:24.935Z,0.20
2023-04-13T11:32:53.613Z,0.40
2023-04-13T11:35:22.759Z,0.33
2023-04-13T11:37:53.064Z,0.30
2023-04-13T11:40:25.817Z,0.30
2023-04-13T11:42:55.177Z,0.20
2023-04-13T11:45:24.006Z,0.20
2023-04-13T11:47:52.477Z,0.30
2023-04-13T11:50:20.405Z,0.43
2023-04-13T11:52:48.645Z,0.40
2023-04-13T11:55:23.136Z,0.20
2023-04-13T11:57:51.693Z,0.20
2023-04-13T12:00:24.308Z,0.23
2023-04-13T12:03:01.808Z,0.20
2023-04-13T12:05:32.536Z,0.27
2023-04-13T12:08:02.173Z,0.30
2023-04-13T12:10:38.926Z,0.30
2023-04-13T12:13:20.143Z,0.20
2023-04-13T12:16:06.036Z,0.30
2023-04-13T12:18:46.953Z,0.20
2023-04-13T12:21:26.510Z,0.30
2023-04-13T12:23:54.978Z,0.27
2023-04-13T12:27:10.256Z,0.20
2023-04-13T12:29:13.530Z,0.40
2023-04-13T12:31:40.960Z,0.30
2023-04-13T12:34:11.097Z,0.20
2023-04-13T12:36:38.581Z,0.20
2023-04-13T12:39:06.964Z,0.27
2023-04-13T12:41:34.505Z,0.30
2023-04-13T12:44:01.814Z,0.40
2023-04-13T12:46:29.324Z,0.23
2023-04-13T12:48:57.018Z,0.20
2023-04-13T12:51:24.613Z,0.33
2023-04-13T12:53:51.910Z,0.30
2023-04-13T12:56:19.346Z,0.27
2023-04-13T12:58:46.692Z,0.30
2023-04-13T13:01:14.544Z,0.30
2023-04-13T13:03:42.250Z,0.20
2023-04-13T13:06:12.018Z,0.30
2023-04-13T13:08:40.372Z,0.30
2023-04-13T13:11:11.276Z,0.20
2023-04-13T13:13:38.679Z,0.20
2023-04-13T13:16:06.464Z,0.30
2023-04-13T13:18:47.073Z,0.63
2023-04-13T13:21:18.056Z,0.20
2023-04-13T13:23:46.012Z,0.50
2023-04-13T13:28:47.197Z,0.27
2023-04-13T13:31:15.684Z,0.47
2023-04-13T13:33:43.147Z,0.47
2023-04-13T13:36:11.032Z,0.30
2023-04-13T13:38:38.337Z,0.33
2023-04-13T13:41:05.923Z,0.43
2023-04-13T13:43:33.652Z,0.40
2023-04-13T13:46:01.308Z,0.40
2023-04-13T13:48:28.770Z,0.37
2023-04-13T13:50:56.208Z,0.50
2023-04-13T13:53:23.890Z,0.40
2023-04-13T13:55:51.204Z,0.50
2023-04-13T13:58:18.609Z,0.47
2023-04-13T14:00:46.288Z,0.30
2023-04-13T14:03:16.623Z,0.30
2023-04-13T14:05:44.381Z,0.37
2023-04-13T14:08:12.051Z,0.20
2023-04-13T14:10:39.735Z,0.30
2023-04-13T14:13:07.657Z,0.30
2023-04-13T14:15:35.230Z,0.27
2023-04-13T14:18:10.473Z,0.30
2023-04-13T14:20:40.521Z,0.33
2023-04-13T14:23:09.729Z,0.30
2023-04-13T14:25:38.866Z,0.27
2023-04-13T14:28:06.973Z,0.77
2023-04-13T14:30:34.642Z,0.30
2023-04-13T14:33:02.457Z,0.40
2023-04-13T14:35:29.923Z,0.30
2023-04-13T14:37:57.600Z,0.20
2023-04-13T14:40:24.965Z,0.23
2023-04-13T14:42:55.706Z,0.20
2023-04-13T14:45:23.139Z,0.20
2023-04-13T14:47:54.199Z,0.30
2023-04-13T14:50:21.979Z,0.30
2023-04-13T14:52:50.444Z,0.20
2023-04-13T14:55:18.216Z,0.20
2023-04-13T14:57:46.206Z,0.40
2023-04-13T15:00:26.649Z,0.50
2023-04-13T15:02:54.395Z,0.40
2023-04-13T15:05:22.400Z,0.20
2023-04-13T15:07:51.176Z,0.47
2023-04-13T15:10:19.357Z,0.50
2023-04-13T15:12:48.363Z,0.33
2023-04-13T15:15:16.040Z,0.40
2023-04-13T15:17:43.496Z,0.20
2023-04-13T15:20:12.206Z,0.30
2023-04-13T15:22:39.824Z,0.20
2023-04-13T15:25:07.571Z,0.37
2023-04-13T15:27:34.912Z,0.23
2023-04-13T15:30:03.522Z,0.20
2023-04-13T15:32:31.441Z,1.80
2023-04-13T15:34:58.930Z,0.37
2023-04-13T15:37:26.494Z,0.37
2023-04-13T15:39:55.317Z,0.53
2023-04-13T15:42:23.220Z,0.30
2023-04-13T15:44:50.854Z,0.40
2023-04-13T15:47:18.302Z,0.20
2023-04-13T15:49:45.893Z,1.97
2023-04-13T15:52:13.285Z,0.30
2023-04-13T15:54:41.169Z,2.53
2023-04-13T15:57:08.445Z,0.40
2023-04-13T15:59:35.946Z,0.20
2023-04-13T16:02:03.501Z,0.10
2023-04-13T16:04:31.588Z,0.10
2023-04-13T16:09:30.809Z,0.20
2023-04-13T16:11:58.203Z,0.10
2023-04-13T16:14:25.618Z,0.50
2023-04-13T16:16:53.764Z,0.30
2023-04-13T16:19:21.413Z,0.37
2023-04-13T16:21:51.027Z,0.30
2023-04-13T16:24:18.892Z,0.30
2023-04-13T16:26:46.289Z,0.33
2023-04-13T16:29:14.056Z,0.47
2023-04-13T16:31:44.895Z,0.30
2023-04-13T16:36:45.810Z,0.30
2023-04-13T16:39:13.374Z,0.50
2023-04-13T16:41:41.733Z,0.40
2023-04-13T16:44:09.208Z,0.30
2023-04-13T16:46:36.748Z,0.40
2023-04-13T16:49:04.367Z,0.43
2023-04-13T16:51:32.407Z,0.20
2023-04-13T16:54:00.731Z,0.30
2023-04-13T16:56:31.324Z,0.30
2023-04-13T16:58:59.115Z,0.50
2023-04-13T17:01:27.076Z,0.23
2023-04-13T17:03:55.187Z,0.30
2023-04-13T17:06:22.680Z,0.40
2023-04-13T17:08:50.131Z,0.20
2023-04-13T17:11:17.445Z,0.23
2023-04-13T17:13:45.109Z,0.30
2023-04-13T17:16:12.519Z,0.30
2023-04-13T17:18:40.047Z,0.60
2023-04-13T17:21:07.721Z,0.20
2023-04-13T17:23:35.402Z,0.30
2023-04-13T17:26:03.772Z,0.23
2023-04-13T17:28:31.324Z,0.57
2023-04-13T17:30:58.725Z,0.50
2023-04-13T17:33:28.255Z,0.50
2023-04-13T17:35:56.331Z,0.30
2023-04-13T17:38:23.839Z,0.30
2023-04-13T17:40:51.239Z,0.50
2023-04-13T17:43:18.925Z,0.43
2023-04-13T17:45:46.821Z,0.23
2023-04-13T17:48:14.296Z,0.30
2023-04-13T17:50:41.770Z,0.30
2023-04-13T17:53:09.164Z,0.60
2023-04-13T17:55:37.646Z,0.50
2023-04-13T17:58:05.165Z,0.30
2023-04-13T18:00:32.574Z,0.30
2023-04-13T18:03:01.182Z,0.40
2023-04-13T18:05:30.766Z,0.40
2023-04-13T18:07:58.165Z,0.50
2023-04-13T18:10:25.678Z,0.40
2023-04-13T18:12:53.087Z,1.00
2023-04-13T18:15:20.406Z,0.50
2023-04-13T18:17:47.833Z,0.23
2023-04-13T18:20:15.268Z,0.40
2023-04-13T18:22:42.696Z,0.50
2023-04-13T18:25:10.199Z,0.33
2023-04-13T18:27:37.585Z,0.37
2023-04-13T18:30:05.138Z,0.47
2023-04-13T18:32:32.555Z,0.63
2023-04-13T18:34:59.852Z,0.30
2023-04-13T18:37:27.174Z,0.50
2023-04-13T18:39:56.691Z,0.60
2023-04-13T18:42:24.290Z,0.50
2023-04-13T18:44:51.821Z,0.40
2023-04-13T18:47:20.619Z,0.37
2023-04-13T18:49:48.265Z,0.40
2023-04-13T18:52:15.733Z,0.57
2023-04-13T18:54:43.412Z,0.40
2023-04-13T18:57:11.256Z,0.40
2023-04-13T18:59:39.329Z,0.40
2023-04-13T19:02:06.845Z,0.50
2023-04-13T19:04:35.663Z,0.60
2023-04-13T19:07:08.687Z,0.57
2023-04-13T19:09:39.328Z,0.50
2023-04-13T19:12:07.424Z,1.03
2023-04-13T19:14:34.963Z,0.40
2023-04-13T19:17:02.495Z,0.43
2023-04-13T19:19:30.121Z,0.47
2023-04-13T19:21:57.490Z,0.60
2023-04-13T19:24:24.925Z,0.90
2023-04-13T19:26:52.363Z,1.00
2023-04-13T19:29:21.172Z,0.90
2023-04-13T19:31:50.013Z,0.80
2023-04-13T19:34:17.496Z,0.90
2023-04-13T19:36:45.007Z,0.47
2023-04-13T19:39:12.647Z,0.87
2023-04-13T19:41:41.286Z,0.70
2023-04-13T19:44:13.609Z,0.30
2023-04-13T19:46:41.006Z,0.67
2023-04-13T19:49:08.530Z,1.03
2023-04-13T19:51:36.290Z,1.17
2023-04-13T19:54:05.162Z,0.73
2023-04-13T19:56:36.610Z,1.00
2023-04-13T19:59:05.087Z,0.37
2023-04-13T20:01:34.007Z,0.53
2023-04-13T20:04:03.881Z,0.70
2023-04-13T20:06:33.214Z,0.50
2023-04-13T20:09:10.656Z,0.53
2023-04-13T20:11:38.604Z,0.67
2023-04-13T20:14:06.086Z,0.60
2023-04-13T20:16:35.624Z,0.60
2023-04-13T20:19:03.131Z,0.80
2023-04-13T20:21:33.253Z,0.80
2023-04-13T20:24:01.218Z,0.60
2023-04-13T20:26:29.887Z,0.50
2023-04-13T20:28:57.886Z,0.60
2023-04-13T20:31:25.759Z,0.60
2023-04-13T20:33:53.243Z,1.00
2023-04-13T20:36:21.857Z,0.50
2023-04-13T20:38:49.281Z,0.70
2023-04-13T20:41:18.483Z,0.57
2023-04-13T20:43:45.923Z,0.73
2023-04-13T20:46:13.284Z,0.83
2023-04-13T20:51:13.429Z,1.07
2023-04-13T20:53:40.809Z,0.70
2023-04-13T20:56:09.216Z,0.80
2023-04-13T20:58:37.593Z,0.70
2023-04-13T21:01:05.294Z,1.07
2023-04-13T21:03:33.125Z,0.70
2023-04-13T21:06:01.074Z,0.60
2023-04-13T21:08:28.455Z,0.77
2023-04-13T21:10:58.326Z,0.50
2023-04-13T21:13:25.840Z,0.70
2023-04-13T21:15:53.169Z,0.87
2023-04-13T21:18:20.773Z,0.67
2023-04-13T21:20:48.219Z,0.50
2023-04-13T21:23:15.655Z,0.80
2023-04-13T21:25:44.682Z,0.70
2023-04-13T21:28:12.088Z,0.60
2023-04-13T21:30:39.488Z,0.73
2023-04-13T21:33:06.949Z,0.70
2023-04-13T21:35:34.366Z,0.93
2023-04-13T21:38:05.126Z,0.80
2023-04-13T21:40:32.681Z,0.80
2023-04-13T21:43:00.124Z,0.70
2023-04-13T21:45:27.490Z,0.80
2023-04-13T21:47:55.306Z,0.80
2023-04-13T21:50:25.695Z,1.33
2023-04-13T21:52:53.080Z,0.90
2023-04-13T21:55:20.511Z,0.97
2023-04-13T21:57:48.286Z,0.90
2023-04-13T22:00:18.101Z,1.13
2023-04-13T22:02:45.746Z,0.80
2023-04-13T22:05:13.453Z,1.10
2023-04-13T22:07:43.382Z,0.80
2023-04-13T22:10:11.459Z,0.70
2023-04-13T22:12:38.922Z,1.07
2023-04-13T22:15:06.658Z,0.97
2023-04-13T22:17:33.993Z,0.90
2023-04-13T22:20:01.416Z,0.90
2023-04-13T22:22:28.848Z,0.70
2023-04-13T22:24:56.327Z,0.93
2023-04-13T22:27:23.819Z,0.83
2023-04-13T22:29:54.898Z,0.90
2023-04-13T22:32:22.297Z,1.30
2023-04-13T22:34:49.929Z,0.70
2023-04-13T22:37:17.832Z,1.27
2023-04-13T22:39:45.406Z,1.07
2023-04-13T22:42:12.768Z,0.73
2023-04-13T22:44:40.128Z,1.23
2023-04-13T22:47:07.483Z,0.90
2023-04-13T22:49:34.843Z,0.77
2023-04-13T22:52:02.237Z,0.93
2023-04-13T22:54:30.134Z,0.90
2023-04-13T22:56:57.518Z,0.70
2023-04-13T22:59:24.967Z,0.80
2023-04-13T23:01:52.348Z,0.87
2023-04-13T23:04:20.092Z,0.70
2023-04-13T23:06:48.124Z,1.33
2023-04-13T23:09:15.481Z,0.70
2023-04-13T23:11:42.839Z,0.70
2023-04-13T23:14:10.833Z,0.87
2023-04-13T23:16:38.237Z,0.90
2023-04-13T23:19:06.061Z,0.77
2023-04-13T23:21:33.561Z,0.80
2023-04-13T23:24:00.937Z,0.90
2023-04-13T23:26:31.363Z,0.87
2023-04-13T23:28:58.969Z,0.80
2023-04-13T23:31:26.707Z,0.90
2023-04-13T23:33:55.051Z,0.73
2023-04-13T23:36:22.625Z,0.80
2023-04-13T23:38:49.970Z,0.90
2023-04-13T23:41:17.739Z,0.90
2023-04-13T23:43:45.238Z,0.80
2023-04-13T23:46:13.278Z,0.60
2023-04-13T23:48:40.635Z,0.70
2023-04-13T23:51:08.046Z,0.70
2023-04-13T23:53:35.872Z,0.80
2023-04-13T23:56:03.166Z,0.93
2023-04-13T23:58:30.859Z,0.90
